Groton, CT (06340)

12:51 PM EST on January 30, 2015 (GMT -0500)
APRSWXNET Groton CT US | Change Station
CLOSE
Current Station
Personal Weather Station
Location: New London, CT
Elevation: 0 ft
Nearby Weather Stations
Active Advisory: Wind Advisory

Elev 0 ft 41.35 °N, 72.08 °W | Updated 32 minutes ago

Light Snow
Light Snow Mist
33 °F
Feels Like 27 °F
N
6
Wind Variable Wind from NNW
Gusts 7.0 mph

Today
High -- | Low -- °F
--% Chance of Precip.
Yesterday
High -- | Low -- °F
Precip. -- in
7:01 AM 5:01 PM
Waxing Gibbous, 84% visible
Pressure 29.76 in
Visibility 3.0 miles
Clouds Mostly Cloudy 1300 ft
Mostly Cloudy 3800 ft
Overcast 4500 ft
Windchill 27 °F
Dew Point 32 °F
Humidity 95%
Rainfall 0.05 in
Snow Depth Not available.
UV 1 out of 12
Pollen .10 out of 12
Air Quality Not available.
Flu Activity Not available.
METAR KGON 301656Z 33008KT 3SM -SN BR BKN013 BKN038 OVC045 00/M01 A2976 RMK AO2 SLP078 P0000 T00001011

More Conditions Fewer Conditions

Pressure 29.76 in
Visibility 3.0 miles
Clouds Mostly Cloudy 1300 ft
Mostly Cloudy 3800 ft
Overcast 4500 ft
Windchill 27 °F
Dew Point 32 °F
Humidity 95%
Rainfall 0.05 in
Snow Depth Not available.
UV 1 out of 12
Pollen .10 out of 12
Air Quality Not available.
Flu Activity Not available.
METAR KGON 301656Z 33008KT 3SM -SN BR BKN013 BKN038 OVC045 00/M01 A2976 RMK AO2 SLP078 P0000 T00001011

More Conditions Fewer Conditions

10-Day Weather Forecast

Almanac

Astronomy

Jan. 30, 2015 Rise Set
Actual Time
Civil Twilight
Nautical Twilight
Astronomical Twilight
Moon
Length of Visible Light
Length of Day
Tomorrow will be .
, % of the Moon is Illuminated

Today's Extremes

State Highs State Lows

Community

WunderPhotos

Upload Photos

1,791,835 photos uploaded!

WunderBlogs® & News

Nearby

Air Quality

  Air Quality AQ Index Pollutant
Not available.

Snow Depth

Station Depth Elevation

Earthquake Activity

City Distance Mag. Time & Date
Minimum magnitude displayed is 2.5.

Coastal Water Temperatures

Place Temperature

Nearby Weather Stations